sensor_id;sensor_type;location;lat;lon;timestamp;pressure;altitude;pressure_sealevel;temperature;humidity
14253;BME280;7210;51.502;10.722;2023-04-06T00:01:09;100056.88;;;-1.33;98.21
14253;BME280;7210;51.502;10.722;2023-04-06T00:03:37;100057.31;;;-1.38;98.79
14253;BME280;7210;51.502;10.722;2023-04-06T00:06:05;100057.44;;;-1.39;99.15
14253;BME280;7210;51.502;10.722;2023-04-06T00:08:32;100057.72;;;-1.42;99.12
14253;BME280;7210;51.502;10.722;2023-04-06T00:10:59;100047.78;;;-1.47;99.10
14253;BME280;7210;51.502;10.722;2023-04-06T00:13:26;100047.78;;;-1.47;99.31
14253;BME280;7210;51.502;10.722;2023-04-06T00:15:53;100038.63;;;-1.51;99.78
14253;BME280;7210;51.502;10.722;2023-04-06T00:18:22;100038.09;;;-1.54;99.88
14253;BME280;7210;51.502;10.722;2023-04-06T00:20:49;100030.59;;;-1.57;99.83
14253;BME280;7210;51.502;10.722;2023-04-06T00:23:20;100043.56;;;-1.57;100.00
14253;BME280;7210;51.502;10.722;2023-04-06T00:25:48;100047.09;;;-1.58;99.98
14253;BME280;7210;51.502;10.722;2023-04-06T00:28:15;100035.25;;;-1.61;100.00
14253;BME280;7210;51.502;10.722;2023-04-06T00:30:44;100040.44;;;-1.61;100.00
14253;BME280;7210;51.502;10.722;2023-04-06T00:33:12;100038.78;;;-1.62;100.00
14253;BME280;7210;51.502;10.722;2023-04-06T00:35:40;100028.56;;;-1.63;100.00
14253;BME280;7210;51.502;10.722;2023-04-06T00:38:07;100034.03;;;-1.66;100.00
14253;BME280;7210;51.502;10.722;2023-04-06T00:40:34;100028.84;;;-1.66;100.00
14253;BME280;7210;51.502;10.722;2023-04-06T00:43:02;100029.09;;;-1.69;100.00
14253;BME280;7210;51.502;10.722;2023-04-06T00:45:29;100021.47;;;-1.71;100.00
14253;BME280;7210;51.502;10.722;2023-04-06T00:47:56;100020.94;;;-1.74;100.00
14253;BME280;7210;51.502;10.722;2023-04-06T00:50:24;100008.53;;;-1.80;100.00
14253;BME280;7210;51.502;10.722;2023-04-06T00:52:53;100016.31;;;-1.80;100.00
14253;BME280;7210;51.502;10.722;2023-04-06T00:55:26;100005.41;;;-1.84;100.00
14253;BME280;7210;51.502;10.722;2023-04-06T00:57:53;100004.56;;;-1.84;100.00
14253;BME280;7210;51.502;10.722;2023-04-06T01:00:21;100000.34;;;-1.85;100.00
14253;BME280;7210;51.502;10.722;2023-04-06T01:02:54;99991.25;;;-1.89;100.00
14253;BME280;7210;51.502;10.722;2023-04-06T01:05:24;99999.94;;;-1.90;100.00
14253;BME280;7210;51.502;10.722;2023-04-06T01:07:56;99982.78;;;-1.91;100.00
14253;BME280;7210;51.502;10.722;2023-04-06T01:10:28;99986.31;;;-1.92;100.00
14253;BME280;7210;51.502;10.722;2023-04-06T01:13:02;99984.97;;;-1.96;100.00
14253;BME280;7210;51.502;10.722;2023-04-06T01:15:50;99976.25;;;-1.95;100.00
14253;BME280;7210;51.502;10.722;2023-04-06T01:18:29;99977.34;;;-1.98;100.00
14253;BME280;7210;51.502;10.722;2023-04-06T01:21:12;99965.47;;;-2.00;100.00
14253;BME280;7210;51.502;10.722;2023-04-06T01:23:51;99964.81;;;-2.02;100.00
14253;BME280;7210;51.502;10.722;2023-04-06T01:26:25;99967.53;;;-2.04;100.00
14253;BME280;7210;51.502;10.722;2023-04-06T01:28:53;99957.59;;;-2.08;100.00
14253;BME280;7210;51.502;10.722;2023-04-06T01:31:26;99962.63;;;-2.07;100.00
14253;BME280;7210;51.502;10.722;2023-04-06T01:33:54;99960.97;;;-1.98;100.00
14253;BME280;7210;51.502;10.722;2023-04-06T01:36:24;99969.28;;;-1.95;100.00
14253;BME280;7210;51.502;10.722;2023-04-06T01:39:01;99957.44;;;-1.97;100.00
14253;BME280;7210;51.502;10.722;2023-04-06T01:41:33;99952.28;;;-1.97;100.00
14253;BME280;7210;51.502;10.722;2023-04-06T01:44:01;99955.53;;;-1.95;100.00
14253;BME280;7210;51.502;10.722;2023-04-06T01:46:30;99943.81;;;-1.99;100.00
14253;BME280;7210;51.502;10.722;2023-04-06T01:48:58;99943.13;;;-2.01;100.00
14253;BME280;7210;51.502;10.722;2023-04-06T01:51:33;99941.91;;;-1.97;100.00
14253;BME280;7210;51.502;10.722;2023-04-06T01:54:04;99942.72;;;-1.97;100.00
14253;BME280;7210;51.502;10.722;2023-04-06T01:56:56;99935.38;;;-2.01;100.00
14253;BME280;7210;51.502;10.722;2023-04-06T01:59:30;99925.56;;;-2.07;100.00
14253;BME280;7210;51.502;10.722;2023-04-06T02:01:59;99916.44;;;-2.11;100.00
14253;BME280;7210;51.502;10.722;2023-04-06T02:04:28;99909.50;;;-2.20;100.00
14253;BME280;7210;51.502;10.722;2023-04-06T02:07:07;99913.84;;;-2.21;100.00
14253;BME280;7210;51.502;10.722;2023-04-06T02:09:35;99911.69;;;-2.25;100.00
14253;BME280;7210;51.502;10.722;2023-04-06T02:14:56;99912.22;;;-2.31;100.00
14253;BME280;7210;51.502;10.722;2023-04-06T02:17:23;99904.59;;;-2.33;100.00
14253;BME280;7210;51.502;10.722;2023-04-06T02:19:51;99917.69;;;-2.34;100.00
14253;BME280;7210;51.502;10.722;2023-04-06T02:22:18;99921.91;;;-2.33;100.00
14253;BME280;7210;51.502;10.722;2023-04-06T02:24:46;99917.69;;;-2.34;100.00
14253;BME280;7210;51.502;10.722;2023-04-06T02:27:14;99915.34;;;-2.37;100.00
14253;BME280;7210;51.502;10.722;2023-04-06T02:29:45;99917.94;;;-2.37;100.00
14253;BME280;7210;51.502;10.722;2023-04-06T02:32:14;99923.13;;;-2.37;100.00
14253;BME280;7210;51.502;10.722;2023-04-06T02:34:41;99911.97;;;-2.38;100.00
14253;BME280;7210;51.502;10.722;2023-04-06T02:37:09;99914.56;;;-2.38;100.00
14253;BME280;7210;51.502;10.722;2023-04-06T02:39:36;99907.59;;;-2.37;100.00
14253;BME280;7210;51.502;10.722;2023-04-06T02:42:08;99908.28;;;-2.35;100.00
14253;BME280;7210;51.502;10.722;2023-04-06T02:44:36;99908.97;;;-2.33;100.00
14253;BME280;7210;51.502;10.722;2023-04-06T02:47:03;99905.72;;;-2.35;100.00
14253;BME280;7210;51.502;10.722;2023-04-06T02:49:30;99908.56;;;-2.38;100.00
14253;BME280;7210;51.502;10.722;2023-04-06T02:51:59;99895.66;;;-2.48;100.00
14253;BME280;7210;51.502;10.722;2023-04-06T02:54:31;99900.66;;;-2.46;100.00
14253;BME280;7210;51.502;10.722;2023-04-06T02:56:59;99905.16;;;-2.48;100.00
14253;BME280;7210;51.502;10.722;2023-04-06T02:59:38;99904.50;;;-2.50;100.00
14253;BME280;7210;51.502;10.722;2023-04-06T03:02:15;99893.31;;;-2.51;100.00
14253;BME280;7210;51.502;10.722;2023-04-06T03:04:44;99896.31;;;-2.55;100.00
14253;BME280;7210;51.502;10.722;2023-04-06T03:07:21;99894.00;;;-2.58;100.00
14253;BME280;7210;51.502;10.722;2023-04-06T03:09:48;99898.91;;;-2.55;100.00
14253;BME280;7210;51.502;10.722;2023-04-06T03:12:17;99890.47;;;-2.57;100.00
14253;BME280;7210;51.502;10.722;2023-04-06T03:15:10;99891.00;;;-2.54;100.00
14253;BME280;7210;51.502;10.722;2023-04-06T03:17:40;99893.44;;;-2.52;100.00
14253;BME280;7210;51.502;10.722;2023-04-06T03:20:13;99885.97;;;-2.55;100.00
14253;BME280;7210;51.502;10.722;2023-04-06T03:22:41;99881.19;;;-2.60;100.00
14253;BME280;7210;51.502;10.722;2023-04-06T03:25:12;99880.66;;;-2.63;100.00
14253;BME280;7210;51.502;10.722;2023-04-06T03:27:42;99875.06;;;-2.68;100.00
14253;BME280;7210;51.502;10.722;2023-04-06T03:30:15;99874.66;;;-2.73;100.00
14253;BME280;7210;51.502;10.722;2023-04-06T03:32:43;99881.06;;;-2.77;100.00
14253;BME280;7210;51.502;10.722;2023-04-06T03:35:10;99883.09;;;-2.81;100.00
14253;BME280;7210;51.502;10.722;2023-04-06T03:37:37;99875.75;;;-2.85;100.00
14253;BME280;7210;51.502;10.722;2023-04-06T03:40:06;99879.28;;;-2.86;100.00
14253;BME280;7210;51.502;10.722;2023-04-06T03:42:34;99882.81;;;-2.87;100.00
14253;BME280;7210;51.502;10.722;2023-04-06T03:45:08;99884.56;;;-2.88;100.00
14253;BME280;7210;51.502;10.722;2023-04-06T03:47:40;99883.09;;;-2.90;100.00
14253;BME280;7210;51.502;10.722;2023-04-06T03:50:09;99888.94;;;-2.88;100.00
14253;BME280;7210;51.502;10.722;2023-04-06T03:52:36;99897.38;;;-2.86;100.00
14253;BME280;7210;51.502;10.722;2023-04-06T03:55:05;99891.25;;;-2.85;100.00
14253;BME280;7210;51.502;10.722;2023-04-06T03:57:32;99897.38;;;-2.86;100.00
14253;BME280;7210;51.502;10.722;2023-04-06T03:59:59;99891.53;;;-2.88;100.00
14253;BME280;7210;51.502;10.722;2023-04-06T04:02:27;99889.91;;;-2.89;100.00
14253;BME280;7210;51.502;10.722;2023-04-06T04:04:56;99884.97;;;-2.92;100.00
14253;BME280;7210;51.502;10.722;2023-04-06T04:07:24;99881.72;;;-2.94;100.00
14253;BME280;7210;51.502;10.722;2023-04-06T04:09:51;99887.97;;;-2.97;100.00
14253;BME280;7210;51.502;10.722;2023-04-06T04:12:18;99883.09;;;-3.00;100.00
14253;BME280;7210;51.502;10.722;2023-04-06T04:14:46;99890.28;;;-3.03;100.00
14253;BME280;7210;51.502;10.722;2023-04-06T04:17:15;99891.50;;;-3.07;100.00
14253;BME280;7210;51.502;10.722;2023-04-06T04:19:43;99878.97;;;-3.12;100.00
14253;BME280;7210;51.502;10.722;2023-04-06T04:22:13;99886.03;;;-3.14;100.00
14253;BME280;7210;51.502;10.722;2023-04-06T04:24:42;99892.16;;;-3.15;100.00
14253;BME280;7210;51.502;10.722;2023-04-06T04:27:10;99887.13;;;-3.16;100.00
14253;BME280;7210;51.502;10.722;2023-04-06T04:29:38;99885.50;;;-3.17;100.00
14253;BME280;7210;51.502;10.722;2023-04-06T04:32:08;99890.66;;;-3.17;100.00
14253;BME280;7210;51.502;10.722;2023-04-06T04:34:35;99892.44;;;-3.18;100.00
14253;BME280;7210;51.502;10.722;2023-04-06T04:37:07;99884.81;;;-3.19;100.00
14253;BME280;7210;51.502;10.722;2023-04-06T04:39:46;99889.03;;;-3.18;100.00
14253;BME280;7210;51.502;10.722;2023-04-06T04:42:14;99890.66;;;-3.17;100.00
14253;BME280;7210;51.502;10.722;2023-04-06T04:44:49;99895.84;;;-3.17;100.00
14253;BME280;7210;51.502;10.722;2023-04-06T04:47:26;99890.00;;;-3.19;100.00
14253;BME280;7210;51.502;10.722;2023-04-06T04:49:55;99894.47;;;-3.21;100.00
14253;BME280;7210;51.502;10.722;2023-04-06T04:52:24;99893.66;;;-3.22;100.00
14253;BME280;7210;51.502;10.722;2023-04-06T04:55:09;99892.03;;;-3.23;100.00
14253;BME280;7210;51.502;10.722;2023-04-06T04:57:36;99895.41;;;-3.22;100.00
14253;BME280;7210;51.502;10.722;2023-04-06T05:00:07;99897.47;;;-3.16;100.00
14253;BME280;7210;51.502;10.722;2023-04-06T05:02:36;99903.31;;;-3.14;100.00
14253;BME280;7210;51.502;10.722;2023-04-06T05:05:13;99899.94;;;-3.15;100.00
14253;BME280;7210;51.502;10.722;2023-04-06T05:07:41;99894.75;;;-3.15;100.00
14253;BME280;7210;51.502;10.722;2023-04-06T05:10:14;99905.38;;;-3.08;100.00
14253;BME280;7210;51.502;10.722;2023-04-06T05:12:53;99918.19;;;-2.97;100.00
14253;BME280;7210;51.502;10.722;2023-04-06T05:15:20;99904.31;;;-2.96;100.00
14253;BME280;7210;51.502;10.722;2023-04-06T05:17:51;99902.41;;;-2.94;100.00
14253;BME280;7210;51.502;10.722;2023-04-06T05:20:24;99899.81;;;-2.94;100.00
14253;BME280;7210;51.502;10.722;2023-04-06T05:22:52;99909.75;;;-2.90;100.00
14253;BME280;7210;51.502;10.722;2023-04-06T05:25:21;99908.41;;;-2.84;100.00
14253;BME280;7210;51.502;10.722;2023-04-06T05:27:51;99910.34;;;-2.77;100.00
14253;BME280;7210;51.502;10.722;2023-04-06T05:30:36;99907.34;;;-2.72;100.00
14253;BME280;7210;51.502;10.722;2023-04-06T05:33:05;99916.59;;;-2.60;100.00
14253;BME280;7210;51.502;10.722;2023-04-06T05:35:53;99908.81;;;-2.60;100.00
14253;BME280;7210;51.502;10.722;2023-04-06T05:38:22;99911.69;;;-2.54;100.00
14253;BME280;7210;51.502;10.722;2023-04-06T05:40:52;99917.41;;;-2.41;100.00
14253;BME280;7210;51.502;10.722;2023-04-06T05:43:25;99914.41;;;-2.27;100.00
14253;BME280;7210;51.502;10.722;2023-04-06T05:45:55;99913.03;;;-2.21;100.00
14253;BME280;7210;51.502;10.722;2023-04-06T05:48:22;99911.13;;;-2.19;100.00
14253;BME280;7210;51.502;10.722;2023-04-06T05:50:50;99912.47;;;-2.15;100.00
14253;BME280;7210;51.502;10.722;2023-04-06T05:53:20;99914.53;;;-2.09;100.00
14253;BME280;7210;51.502;10.722;2023-04-06T05:55:55;99915.59;;;-2.02;100.00
14253;BME280;7210;51.502;10.722;2023-04-06T05:58:22;99905.50;;;-1.96;100.00
14253;BME280;7210;51.502;10.722;2023-04-06T06:00:57;99904.81;;;-1.88;100.00
14253;BME280;7210;51.502;10.722;2023-04-06T06:03:25;99914.03;;;-1.76;100.00
14253;BME280;7210;51.502;10.722;2023-04-06T06:06:02;99911.53;;;-1.68;100.00
14253;BME280;7210;51.502;10.722;2023-04-06T06:08:36;99905.81;;;-1.62;100.00
14253;BME280;7210;51.502;10.722;2023-04-06T06:11:14;99899.22;;;-1.57;100.00
14253;BME280;7210;51.502;10.722;2023-04-06T06:13:42;99897.84;;;-1.51;100.00
14253;BME280;7210;51.502;10.722;2023-04-06T06:16:09;99895.38;;;-1.43;100.00
14253;BME280;7210;51.502;10.722;2023-04-06T06:18:42;99890.28;;;-1.35;100.00
14253;BME280;7210;51.502;10.722;2023-04-06T06:21:10;99878.25;;;-1.36;100.00
14253;BME280;7210;51.502;10.722;2023-04-06T06:23:39;99894.97;;;-1.21;100.00
14253;BME280;7210;51.502;10.722;2023-04-06T06:26:06;99898.19;;;-1.10;100.00
14253;BME280;7210;51.502;10.722;2023-04-06T06:28:35;99900.06;;;-1.02;100.00
14253;BME280;7210;51.502;10.722;2023-04-06T06:31:03;99894.97;;;-0.94;100.00
14253;BME280;7210;51.502;10.722;2023-04-06T06:33:30;99894.75;;;-0.83;100.00
14253;BME280;7210;51.502;10.722;2023-04-06T06:35:58;99894.16;;;-0.77;100.00
14253;BME280;7210;51.502;10.722;2023-04-06T06:38:26;99889.19;;;-0.71;100.00
14253;BME280;7210;51.502;10.722;2023-04-06T06:40:54;99898.59;;;-0.52;100.00
14253;BME280;7210;51.502;10.722;2023-04-06T06:43:24;99897.69;;;-0.43;100.00
14253;BME280;7210;51.502;10.722;2023-04-06T06:45:59;99898.44;;;-0.33;100.00
14253;BME280;7210;51.502;10.722;2023-04-06T06:48:26;99887.81;;;-0.22;100.00
14253;BME280;7210;51.502;10.722;2023-04-06T06:50:53;99885.94;;;-0.13;100.00
14253;BME280;7210;51.502;10.722;2023-04-06T06:53:21;99877.91;;;-0.02;100.00
14253;BME280;7210;51.502;10.722;2023-04-06T06:55:48;99877.50;;;0.11;100.00
14253;BME280;7210;51.502;10.722;2023-04-06T06:58:18;99873.81;;;0.21;100.00
14253;BME280;7210;51.502;10.722;2023-04-06T07:00:46;99865.75;;;0.32;100.00
14253;BME280;7210;51.502;10.722;2023-04-06T07:03:15;99860.91;;;0.37;100.00
14253;BME280;7210;51.502;10.722;2023-04-06T07:05:45;99862.25;;;0.49;100.00
14253;BME280;7210;51.502;10.722;2023-04-06T07:08:18;99855.81;;;0.61;100.00
14253;BME280;7210;51.502;10.722;2023-04-06T07:10:46;99834.38;;;0.67;100.00
14253;BME280;7210;51.502;10.722;2023-04-06T07:13:13;99826.09;;;0.72;100.00
14253;BME280;7210;51.502;10.722;2023-04-06T07:15:44;99834.41;;;0.83;100.00
14253;BME280;7210;51.502;10.722;2023-04-06T07:18:12;99812.28;;;0.87;99.55
14253;BME280;7210;51.502;10.722;2023-04-06T07:20:40;99813.00;;;0.97;99.09
14253;BME280;7210;51.502;10.722;2023-04-06T07:23:07;99808.28;;;1.09;98.64
14253;BME280;7210;51.502;10.722;2023-04-06T07:25:35;99803.25;;;1.23;97.33
14253;BME280;7210;51.502;10.722;2023-04-06T07:28:02;99792.00;;;1.31;97.01
14253;BME280;7210;51.502;10.722;2023-04-06T07:30:29;99782.06;;;1.42;96.39
14253;BME280;7210;51.502;10.722;2023-04-06T07:32:58;99774.44;;;1.49;95.82
14253;BME280;7210;51.502;10.722;2023-04-06T07:35:27;99774.72;;;1.62;95.55
14253;BME280;7210;51.502;10.722;2023-04-06T07:37:57;99830.78;;;2.20;95.46
14253;BME280;7210;51.502;10.722;2023-04-06T07:40:25;99812.16;;;2.39;94.56
14253;BME280;7210;51.502;10.722;2023-04-06T07:42:53;99777.25;;;2.40;93.70
14253;BME280;7210;51.502;10.722;2023-04-06T07:45:20;99747.56;;;2.41;92.76
14253;BME280;7210;51.502;10.722;2023-04-06T07:47:48;99730.94;;;2.42;92.04
14253;BME280;7210;51.502;10.722;2023-04-06T07:50:19;99714.28;;;2.43;91.10
14253;BME280;7210;51.502;10.722;2023-04-06T07:52:47;99702.84;;;2.52;90.44
14253;BME280;7210;51.502;10.722;2023-04-06T07:55:16;99699.84;;;2.63;89.93
14253;BME280;7210;51.502;10.722;2023-04-06T07:57:43;99687.09;;;2.68;89.28
14253;BME280;7210;51.502;10.722;2023-04-06T08:00:12;99683.38;;;2.85;88.65
14253;BME280;7210;51.502;10.722;2023-04-06T08:02:39;99661.31;;;2.88;87.89
14253;BME280;7210;51.502;10.722;2023-04-06T08:05:07;99657.97;;;2.94;87.78
14253;BME280;7210;51.502;10.722;2023-04-06T08:07:35;99654.66;;;3.00;87.36
14253;BME280;7210;51.502;10.722;2023-04-06T08:10:03;99661.63;;;3.07;87.05
14253;BME280;7210;51.502;10.722;2023-04-06T08:12:33;99664.16;;;3.15;86.52
14253;BME280;7210;51.502;10.722;2023-04-06T08:15:00;99660.50;;;3.24;86.16
14253;BME280;7210;51.502;10.722;2023-04-06T08:17:29;99656.44;;;3.36;85.84
14253;BME280;7210;51.502;10.722;2023-04-06T08:19:56;99653.72;;;3.44;85.36
14253;BME280;7210;51.502;10.722;2023-04-06T08:22:24;99648.41;;;3.52;84.91
14253;BME280;7210;51.502;10.722;2023-04-06T08:24:51;99677.00;;;3.68;84.91
14253;BME280;7210;51.502;10.722;2023-04-06T08:27:18;99681.41;;;3.82;84.44
14253;BME280;7210;51.502;10.722;2023-04-06T08:29:49;99677.97;;;3.96;83.78
14253;BME280;7210;51.502;10.722;2023-04-06T08:32:16;99655.59;;;4.08;83.08
14253;BME280;7210;51.502;10.722;2023-04-06T08:34:43;99632.72;;;4.16;82.83
14253;BME280;7210;51.502;10.722;2023-04-06T08:37:11;99636.69;;;4.27;82.44
14253;BME280;7210;51.502;10.722;2023-04-06T08:39:38;99636.38;;;4.36;82.17
14253;BME280;7210;51.502;10.722;2023-04-06T08:42:12;99626.47;;;4.53;81.13
14253;BME280;7210;51.502;10.722;2023-04-06T08:44:43;99602.78;;;4.61;80.80
14253;BME280;7210;51.502;10.722;2023-04-06T08:47:13;99604.06;;;4.71;80.16
14253;BME280;7210;51.502;10.722;2023-04-06T08:49:42;99582.00;;;4.80;79.46
14253;BME280;7210;51.502;10.722;2023-04-06T08:52:11;99569.97;;;4.86;78.94
14253;BME280;7210;51.502;10.722;2023-04-06T08:54:39;99574.50;;;5.05;78.67
14253;BME280;7210;51.502;10.722;2023-04-06T08:57:07;99534.28;;;5.12;77.46
14253;BME280;7210;51.502;10.722;2023-04-06T08:59:35;99491.63;;;5.31;75.96
14253;BME280;7210;51.502;10.722;2023-04-06T09:02:04;99454.38;;;5.49;75.25
14253;BME280;7210;51.502;10.722;2023-04-06T09:04:35;99522.03;;;5.73;75.55
14253;BME280;7210;51.502;10.722;2023-04-06T09:07:02;99470.59;;;5.78;74.58
14253;BME280;7210;51.502;10.722;2023-04-06T09:09:30;99480.72;;;5.88;74.14
14253;BME280;7210;51.502;10.722;2023-04-06T09:11:57;99461.56;;;6.07;73.23
14253;BME280;7210;51.502;10.722;2023-04-06T09:14:36;99472.69;;;6.22;73.42
14253;BME280;7210;51.502;10.722;2023-04-06T09:17:05;99508.84;;;6.39;73.14
14253;BME280;7210;51.502;10.722;2023-04-06T09:19:45;99506.81;;;6.54;72.59
14253;BME280;7210;51.502;10.722;2023-04-06T09:22:13;99513.66;;;6.62;72.57
14253;BME280;7210;51.502;10.722;2023-04-06T09:24:45;99454.25;;;6.74;71.57
14253;BME280;7210;51.502;10.722;2023-04-06T09:27:14;99478.09;;;6.79;71.73
14253;BME280;7210;51.502;10.722;2023-04-06T09:29:42;99511.63;;;6.90;71.58
14253;BME280;7210;51.502;10.722;2023-04-06T09:32:11;99512.41;;;6.97;71.72
14253;BME280;7210;51.502;10.722;2023-04-06T09:34:44;99556.44;;;7.21;71.30
14253;BME280;7210;51.502;10.722;2023-04-06T09:37:15;99462.59;;;7.28;69.71
14253;BME280;7210;51.502;10.722;2023-04-06T09:39:44;99468.03;;;7.32;69.86
14253;BME280;7210;51.502;10.722;2023-04-06T09:42:23;99510.03;;;7.45;69.52
14253;BME280;7210;51.502;10.722;2023-04-06T09:44:50;99450.25;;;7.65;68.36
14253;BME280;7210;51.502;10.722;2023-04-06T09:47:18;99546.31;;;7.81;69.14
14253;BME280;7210;51.502;10.722;2023-04-06T09:49:50;99576.59;;;7.96;69.00
14253;BME280;7210;51.502;10.722;2023-04-06T09:52:21;99561.34;;;8.05;68.60
14253;BME280;7210;51.502;10.722;2023-04-06T09:54:52;99589.88;;;8.14;68.67
14253;BME280;7210;51.502;10.722;2023-04-06T09:57:28;99585.41;;;8.21;68.50
14253;BME280;7210;51.502;10.722;2023-04-06T10:00:03;99536.47;;;8.38;66.67
14253;BME280;7210;51.502;10.722;2023-04-06T10:02:44;99514.28;;;8.52;65.92
14253;BME280;7210;51.502;10.722;2023-04-06T10:05:20;99522.31;;;8.82;65.20
14253;BME280;7210;51.502;10.722;2023-04-06T10:07:54;99495.00;;;8.94;64.55
14253;BME280;7210;51.502;10.722;2023-04-06T10:10:25;99469.84;;;8.98;63.88
14253;BME280;7210;51.502;10.722;2023-04-06T10:12:54;99485.22;;;9.01;63.99
14253;BME280;7210;51.502;10.722;2023-04-06T10:15:22;99553.19;;;9.17;64.08
14253;BME280;7210;51.502;10.722;2023-04-06T10:17:50;99537.69;;;9.27;63.84
14253;BME280;7210;51.502;10.722;2023-04-06T10:20:27;99481.59;;;9.50;61.18
14253;BME280;7210;51.502;10.722;2023-04-06T10:23:01;99261.34;;;9.75;57.44
14253;BME280;7210;51.502;10.722;2023-04-06T10:25:32;99177.09;;;9.85;56.01
14253;BME280;7210;51.502;10.722;2023-04-06T10:28:00;99225.53;;;9.79;57.11
14253;BME280;7210;51.502;10.722;2023-04-06T10:30:28;99156.66;;;9.81;55.78
14253;BME280;7210;51.502;10.722;2023-04-06T10:32:56;99112.78;;;9.91;54.54
14253;BME280;7210;51.502;10.722;2023-04-06T10:35:36;99041.09;;;10.11;52.72
14253;BME280;7210;51.502;10.722;2023-04-06T10:38:05;98907.69;;;10.08;51.10
14253;BME280;7210;51.502;10.722;2023-04-06T10:40:36;98929.53;;;10.20;50.91
14253;BME280;7210;51.502;10.722;2023-04-06T10:43:09;98988.84;;;10.29;51.03
14253;BME280;7210;51.502;10.722;2023-04-06T10:45:37;98952.75;;;10.35;50.06
14253;BME280;7210;51.502;10.722;2023-04-06T10:48:14;98960.19;;;10.38;49.80
14253;BME280;7210;51.502;10.722;2023-04-06T10:50:44;98989.75;;;10.51;49.74
14253;BME280;7210;51.502;10.722;2023-04-06T10:53:20;99052.78;;;10.59;49.82
14253;BME280;7210;51.502;10.722;2023-04-06T10:55:50;99169.91;;;10.76;50.36
14253;BME280;7210;51.502;10.722;2023-04-06T10:58:18;99204.41;;;10.81;50.22
14253;BME280;7210;51.502;10.722;2023-04-06T11:00:46;99181.81;;;10.90;48.82
14253;BME280;7210;51.502;10.722;2023-04-06T11:03:14;99224.53;;;10.99;49.35
14253;BME280;7210;51.502;10.722;2023-04-06T11:05:46;99152.88;;;11.00;48.28
14253;BME280;7210;51.502;10.722;2023-04-06T11:08:24;99235.84;;;11.11;48.56
14253;BME280;7210;51.502;10.722;2023-04-06T11:10:51;99263.09;;;11.11;48.77
14253;BME280;7210;51.502;10.722;2023-04-06T11:13:19;99298.75;;;11.20;48.70
14253;BME280;7210;51.502;10.722;2023-04-06T11:15:46;99267.00;;;11.20;48.30
14253;BME280;7210;51.502;10.722;2023-04-06T11:18:17;99299.00;;;11.35;47.90
14253;BME280;7210;51.502;10.722;2023-04-06T11:20:49;99515.88;;;11.53;50.10
14253;BME280;7210;51.502;10.722;2023-04-06T11:23:23;99366.22;;;11.62;47.54
14253;BME280;7210;51.502;10.722;2023-04-06T11:25:51;99433.31;;;11.67;48.25
14253;BME280;7210;51.502;10.722;2023-04-06T11:28:20;99443.19;;;11.72;48.13
14253;BME280;7210;51.502;10.722;2023-04-06T11:30:47;99399.31;;;11.92;46.78
14253;BME280;7210;51.502;10.722;2023-04-06T11:33:20;99275.41;;;11.99;45.01
14253;BME280;7210;51.502;10.722;2023-04-06T11:35:50;99141.13;;;12.00;43.67
14253;BME280;7210;51.502;10.722;2023-04-06T11:38:18;99165.88;;;12.10;43.61
14253;BME280;7210;51.502;10.722;2023-04-06T11:40:46;99130.69;;;12.15;42.84
14253;BME280;7210;51.502;10.722;2023-04-06T11:43:14;99046.66;;;12.10;42.09
14253;BME280;7210;51.502;10.722;2023-04-06T11:45:42;98993.13;;;12.13;41.30
14253;BME280;7210;51.502;10.722;2023-04-06T11:48:19;98979.13;;;12.18;40.96
14253;BME280;7210;51.502;10.722;2023-04-06T11:50:47;99039.16;;;12.29;41.28
14253;BME280;7210;51.502;10.722;2023-04-06T11:53:16;99038.03;;;12.25;41.17
14253;BME280;7210;51.502;10.722;2023-04-06T11:55:43;99021.91;;;12.31;40.63
14253;BME280;7210;51.502;10.722;2023-04-06T11:58:13;99074.22;;;12.36;41.16
14253;BME280;7210;51.502;10.722;2023-04-06T12:00:40;99118.75;;;12.39;41.56
14253;BME280;7210;51.502;10.722;2023-04-06T12:03:10;99286.75;;;12.54;42.93
14253;BME280;7210;51.502;10.722;2023-04-06T12:05:43;99444.97;;;12.82;43.80
14253;BME280;7210;51.502;10.722;2023-04-06T12:08:11;99550.63;;;13.01;43.94
14253;BME280;7210;51.502;10.722;2023-04-06T12:10:39;99292.75;;;12.88;41.48
14253;BME280;7210;51.502;10.722;2023-04-06T12:13:06;99467.69;;;13.11;42.85
14253;BME280;7210;51.502;10.722;2023-04-06T12:15:37;99356.16;;;13.06;41.96
14253;BME280;7210;51.502;10.722;2023-04-06T12:18:04;99375.31;;;13.13;41.85
14253;BME280;7210;51.502;10.722;2023-04-06T12:20:31;99127.31;;;12.99;39.58
14253;BME280;7210;51.502;10.722;2023-04-06T12:22:58;99261.69;;;13.10;40.93
14253;BME280;7210;51.502;10.722;2023-04-06T12:25:26;99251.53;;;13.02;41.02
14253;BME280;7210;51.502;10.722;2023-04-06T12:27:55;99153.22;;;12.92;40.43
14253;BME280;7210;51.502;10.722;2023-04-06T12:30:22;99371.13;;;13.17;41.53
14253;BME280;7210;51.502;10.722;2023-04-06T12:32:50;99442.50;;;13.35;41.79
14253;BME280;7210;51.502;10.722;2023-04-06T12:35:17;99370.34;;;13.43;40.92
14253;BME280;7210;51.502;10.722;2023-04-06T12:37:44;99465.59;;;13.56;41.62
14253;BME280;7210;51.502;10.722;2023-04-06T12:40:12;99485.16;;;13.71;41.10
14253;BME280;7210;51.502;10.722;2023-04-06T12:42:40;99524.88;;;13.83;41.39
14253;BME280;7210;51.502;10.722;2023-04-06T12:45:10;99516.03;;;13.99;41.17
14253;BME280;7210;51.502;10.722;2023-04-06T12:47:38;99721.84;;;13.86;44.16
14253;BME280;7210;51.502;10.722;2023-04-06T12:50:06;99728.53;;;14.05;43.78
14253;BME280;7210;51.502;10.722;2023-04-06T12:52:34;99611.28;;;14.07;42.20
14253;BME280;7210;51.502;10.722;2023-04-06T12:55:02;99511.56;;;14.04;41.13
14253;BME280;7210;51.502;10.722;2023-04-06T12:57:30;99327.59;;;13.71;40.48
14253;BME280;7210;51.502;10.722;2023-04-06T12:59:58;99370.66;;;13.73;40.58
14253;BME280;7210;51.502;10.722;2023-04-06T13:02:27;99568.25;;;14.10;41.54
14253;BME280;7210;51.502;10.722;2023-04-06T13:04:55;99634.03;;;14.41;41.68
14253;BME280;7210;51.502;10.722;2023-04-06T13:07:22;99610.78;;;14.58;41.15
14253;BME280;7210;51.502;10.722;2023-04-06T13:09:50;99557.78;;;14.51;41.02
14253;BME280;7210;51.502;10.722;2023-04-06T13:12:18;99544.13;;;14.43;41.10
14253;BME280;7210;51.502;10.722;2023-04-06T13:14:45;99479.75;;;14.41;40.57